Time;durP1;ratioP1;P1;durP2;ratioP2;P2;SDS_P1;SDS_P2;PMS_P1;PMS_P2;Temp;Humidity;BMP_temperature;BMP_pressure;BME280_temperature;BME280_humidity;BME280_pressure;Samples;Min_cycle;Max_cycle;Signal;HPM_P1;HPM_P2
2021/12/14 05:18:24;;;;;;;13.83;11.77;;;;;;;;;;6233812;22;100033;-80
2021/12/14 10:17:48;;;;;;;51.07;40.03;;;;;;;;;;6259985;22;99069;-84
2021/12/14 10:20:38;;;;;;;49.60;39.53;;;;;;;;;;6271737;22;97688;-83
2021/12/14 10:23:26;;;;;;;48.03;37.70;;;;;;;;;;6250090;22;97541;-83
2021/12/14 10:26:16;;;;;;;48.17;38.37;;;;;;;;;;6249741;22;98174;-84
2021/12/14 10:29:03;;;;;;;43.67;36.43;;;;;;;;;;6251116;22;97526;-84
2021/12/14 10:32:03;;;;;;;45.50;37.73;;;;;;;;;;6249441;22;98660;-82
2021/12/14 10:34:53;;;;;;;44.50;35.60;;;;;;;;;;6270893;22;98212;-84
2021/12/14 10:43:45;;;;;;;47.40;37.40;;;;;;;;;;6271468;22;98820;-85
2021/12/14 10:46:34;;;;;;;49.20;38.90;;;;;;;;;;6249823;22;97477;-84
2021/12/14 10:49:22;;;;;;;48.70;37.67;;;;;;;;;;6250606;22;98465;-84
2021/12/14 10:52:14;;;;;;;42.50;34.73;;;;;;;;;;6273220;22;97770;-83
2021/12/14 10:55:05;;;;;;;42.63;36.27;;;;;;;;;;6249874;22;98903;-84
2021/12/14 10:57:52;;;;;;;44.70;35.83;;;;;;;;;;6249874;22;99306;-84
2021/12/14 11:00:41;;;;;;;43.70;36.50;;;;;;;;;;6250563;22;97752;-84
2021/12/14 11:03:29;;;;;;;44.13;37.77;;;;;;;;;;6273458;22;98287;-83
2021/12/14 11:06:22;;;;;;;43.93;37.13;;;;;;;;;;6251860;22;98073;-81
2021/12/14 11:12:03;;;;;;;43.57;35.47;;;;;;;;;;6273524;22;97452;-84
2021/12/14 11:14:52;;;;;;;47.40;37.20;;;;;;;;;;6273806;22;97710;-84
2021/12/14 11:21:00;;;;;;;45.67;38.07;;;;;;;;;;6273369;22;98196;-82
2021/12/14 11:23:47;;;;;;;48.70;37.07;;;;;;;;;;6274038;22;98198;-82
2021/12/14 11:26:36;;;;;;;45.20;35.50;;;;;;;;;;6273974;22;97470;-82
2021/12/14 11:29:23;;;;;;;53.63;37.27;;;;;;;;;;6272997;22;97782;-82
2021/12/14 11:32:17;;;;;;;47.17;37.57;;;;;;;;;;6272784;22;98102;-83
2021/12/14 11:35:27;;;;;;;47.57;37.10;;;;;;;;;;6272942;22;97444;-83
2021/12/14 11:38:38;;;;;;;42.73;35.27;;;;;;;;;;6273093;22;97576;-82
2021/12/14 11:41:31;;;;;;;44.90;37.40;;;;;;;;;;6254000;22;97678;-84
2021/12/14 11:52:12;;;;;;;48.03;37.40;;;;;;;;;;6265910;22;100557;-84
2021/12/14 11:54:58;;;;;;;46.17;37.10;;;;;;;;;;6252611;22;98301;-84
2021/12/14 11:58:05;;;;;;;51.80;38.10;;;;;;;;;;6252359;22;97869;-84
2021/12/14 12:00:55;;;;;;;47.63;35.70;;;;;;;;;;6249703;22;98215;-83
2021/12/14 12:03:56;;;;;;;44.43;35.80;;;;;;;;;;6252014;22;98954;-82
2021/12/14 12:09:48;;;;;;;46.37;36.60;;;;;;;;;;6275976;22;97289;-83
2021/12/14 12:12:39;;;;;;;46.47;35.30;;;;;;;;;;6274437;22;97646;-84
2021/12/14 12:36:18;;;;;;;47.30;37.33;;;;;;;;;;6268653;22;100164;-81
2021/12/14 12:39:11;;;;;;;50.90;38.20;;;;;;;;;;6274286;22;97515;-83
2021/12/14 12:41:59;;;;;;;46.17;36.63;;;;;;;;;;6250229;22;98271;-83
2021/12/14 12:44:46;;;;;;;51.23;38.10;;;;;;;;;;6251399;22;97659;-84
2021/12/14 12:47:36;;;;;;;48.90;38.50;;;;;;;;;;6273598;22;99773;-84
2021/12/14 12:50:26;;;;;;;51.67;38.00;;;;;;;;;;6274063;22;98260;-83
2021/12/14 12:53:26;;;;;;;52.73;39.93;;;;;;;;;;6249654;22;98270;-82
2021/12/14 12:56:14;;;;;;;52.67;37.63;;;;;;;;;;6250836;22;97827;-83
2021/12/14 12:59:06;;;;;;;45.67;36.60;;;;;;;;;;6271578;22;98166;-82
2021/12/14 13:02:10;;;;;;;45.40;36.10;;;;;;;;;;6272245;22;97643;-83
2021/12/14 13:05:04;;;;;;;49.50;38.00;;;;;;;;;;6273718;22;97458;-82
2021/12/14 13:07:51;;;;;;;49.00;37.30;;;;;;;;;;6245254;22;99257;-83
2021/12/14 13:10:46;;;;;;;46.60;36.30;;;;;;;;;;6242797;22;97739;-83
2021/12/14 13:13:41;;;;;;;49.13;39.33;;;;;;;;;;6220944;22;97581;-84
2021/12/14 13:16:30;;;;;;;51.40;38.90;;;;;;;;;;6221599;22;99112;-84
2021/12/14 13:19:19;;;;;;;49.50;37.93;;;;;;;;;;6220229;22;98103;-84
2021/12/14 13:22:07;;;;;;;48.93;36.57;;;;;;;;;;6219418;22;97997;-83
2021/12/14 13:24:54;;;;;;;50.00;39.30;;;;;;;;;;6221331;22;97926;-83
2021/12/14 13:27:42;;;;;;;48.00;38.80;;;;;;;;;;6242448;22;98293;-84
2021/12/14 13:30:30;;;;;;;47.97;38.67;;;;;;;;;;6243445;22;98152;-83
2021/12/14 13:33:27;;;;;;;53.33;41.37;;;;;;;;;;6242284;22;98376;-82
2021/12/14 13:36:22;;;;;;;44.70;38.60;;;;;;;;;;6242733;22;97577;-83
2021/12/14 13:55:07;;;;;;;53.53;44.87;;;;;;;;;;6320197;22;99203;-82
2021/12/14 14:05:50;;;;;;;57.03;45.27;;;;;;;;;;6265075;22;99737;-84
2021/12/14 16:21:47;;;;;;;75.23;51.93;;;;;;;;;;6270233;22;100229;-83
2021/12/14 16:24:34;;;;;;;79.90;51.00;;;;;;;;;;6273257;22;97683;-84
2021/12/14 16:27:22;;;;;;;74.40;49.97;;;;;;;;;;6250552;22;98433;-85
2021/12/14 16:30:20;;;;;;;76.97;49.10;;;;;;;;;;6250546;22;98408;-85
2021/12/14 16:33:13;;;;;;;75.60;50.30;;;;;;;;;;6251207;22;98288;-85
2021/12/14 16:36:05;;;;;;;74.50;47.03;;;;;;;;;;6249587;22;97471;-84
2021/12/14 18:08:29;;;;;;;82.30;52.13;;;;;;;;;;6269981;22;99311;-83
2021/12/14 18:22:16;;;;;;;66.83;44.10;;;;;;;;;;6327721;22;99992;-84
2021/12/14 18:25:09;;;;;;;61.00;41.40;;;;;;;;;;6243513;22;100726;-83
2021/12/14 18:27:56;;;;;;;58.10;38.10;;;;;;;;;;6335707;22;98869;-83
2021/12/14 18:30:44;;;;;;;52.97;38.67;;;;;;;;;;6312719;22;97566;-84
2021/12/14 18:33:31;;;;;;;58.37;39.30;;;;;;;;;;6336303;22;97511;-83
